createdAt,value
2022-08-03T00:00:05.230Z,99176.20
2022-08-03T00:03:08.759Z,99174.40
2022-08-03T00:06:04.542Z,99174.80
2022-08-03T00:08:40.948Z,99178.80
2022-08-03T00:11:17.058Z,99173.40
2022-08-03T00:13:53.552Z,99175.80
2022-08-03T00:16:29.584Z,99175.20
2022-08-03T00:19:06.159Z,99177.40
2022-08-03T00:21:42.293Z,99170.80
2022-08-03T00:24:18.584Z,99173.60
2022-08-03T00:26:54.708Z,99173.20
2022-08-03T00:29:30.785Z,99173.60
2022-08-03T00:32:07.976Z,99178.40
2022-08-03T00:34:58.461Z,99173.00
2022-08-03T00:37:40.755Z,99178.60
2022-08-03T00:40:21.301Z,99184.20
2022-08-03T00:43:00.096Z,99180.00
2022-08-03T00:45:41.345Z,99183.00
2022-08-03T00:48:29.549Z,99178.60
2022-08-03T00:51:09.999Z,99183.60
2022-08-03T00:53:46.480Z,99190.00
2022-08-03T00:56:22.837Z,99195.00
2022-08-03T00:59:01.864Z,99195.00
2022-08-03T01:01:37.921Z,99194.00
2022-08-03T01:04:13.885Z,99194.80
2022-08-03T01:07:04.577Z,99192.00
2022-08-03T01:10:01.880Z,99189.20
2022-08-03T01:12:54.845Z,99188.00
2022-08-03T01:15:49.696Z,99180.40
2022-08-03T01:18:37.719Z,99178.20
2022-08-03T01:21:23.465Z,99184.00
2022-08-03T01:24:23.935Z,99184.00
2022-08-03T01:27:18.979Z,99182.40
2022-08-03T01:30:07.223Z,99184.60
2022-08-03T01:33:00.969Z,99182.20
2022-08-03T01:35:46.782Z,99183.40
2022-08-03T01:38:30.713Z,99183.00
2022-08-03T01:41:13.271Z,99187.60
2022-08-03T01:44:03.053Z,99180.80
2022-08-03T01:46:51.692Z,99184.40
2022-08-03T01:49:31.343Z,99183.40
2022-08-03T01:52:09.575Z,99183.00
2022-08-03T01:54:50.600Z,99180.60
2022-08-03T01:57:29.540Z,99178.60
2022-08-03T02:00:09.598Z,99171.40
2022-08-03T02:02:51.846Z,99169.00
2022-08-03T02:05:31.092Z,99168.80
2022-08-03T02:08:12.147Z,99167.80
2022-08-03T02:10:51.108Z,99170.80
2022-08-03T02:13:30.273Z,99167.00
2022-08-03T02:16:08.726Z,99168.20
2022-08-03T02:18:45.088Z,99170.00
2022-08-03T02:21:56.447Z,99169.60
2022-08-03T02:24:22.307Z,99169.00
2022-08-03T02:27:02.503Z,99165.00
2022-08-03T02:29:43.583Z,99166.80
2022-08-03T02:32:26.551Z,99165.20
2022-08-03T02:35:06.116Z,99166.80
2022-08-03T02:37:51.510Z,99165.00
2022-08-03T02:40:29.521Z,99164.80
2022-08-03T02:43:12.026Z,99167.40
2022-08-03T02:45:54.321Z,99169.80
2022-08-03T02:48:37.063Z,99164.60
2022-08-03T02:51:14.213Z,99166.60
2022-08-03T02:53:51.626Z,99169.60
2022-08-03T02:56:29.507Z,99168.80
2022-08-03T02:59:07.516Z,99163.40
2022-08-03T03:01:45.658Z,99166.40
2022-08-03T03:04:22.342Z,99168.60
2022-08-03T03:07:06.751Z,99167.80
2022-08-03T03:09:45.929Z,99170.40
2022-08-03T03:12:23.783Z,99172.40
2022-08-03T03:14:59.731Z,99172.00
2022-08-03T03:17:38.597Z,99173.20
2022-08-03T03:20:29.393Z,99170.20
2022-08-03T03:23:05.720Z,99167.40
2022-08-03T03:25:42.961Z,99168.60
2022-08-03T03:28:19.768Z,99171.00
2022-08-03T03:30:56.046Z,99171.80
2022-08-03T03:33:32.201Z,99169.00
2022-08-03T03:36:09.721Z,99171.60
2022-08-03T03:38:45.740Z,99171.80
2022-08-03T03:41:22.163Z,99173.40
2022-08-03T03:43:58.613Z,99173.00
2022-08-03T03:46:35.069Z,99183.80
2022-08-03T03:49:11.614Z,99184.20
2022-08-03T03:51:47.597Z,99184.00
2022-08-03T03:54:25.504Z,99187.60
2022-08-03T03:57:06.560Z,99187.20
2022-08-03T03:59:46.314Z,99188.60
2022-08-03T04:02:22.366Z,99193.40
2022-08-03T04:05:16.075Z,99199.00
2022-08-03T04:08:19.624Z,99198.80
2022-08-03T04:11:19.327Z,99197.60
2022-08-03T04:14:04.617Z,99199.80
2022-08-03T04:16:47.287Z,99203.80
2022-08-03T04:19:29.641Z,99204.00
2022-08-03T04:22:11.888Z,99204.80
2022-08-03T04:24:54.851Z,99205.80
2022-08-03T04:27:37.608Z,99214.00
2022-08-03T04:30:17.276Z,99213.20
2022-08-03T04:32:54.352Z,99213.20
2022-08-03T04:35:58.569Z,99211.60
2022-08-03T04:38:37.663Z,99219.40
2022-08-03T04:41:14.164Z,99223.40
2022-08-03T04:43:52.945Z,99227.00
2022-08-03T04:46:33.976Z,99224.00
2022-08-03T04:49:11.375Z,99223.80
2022-08-03T04:51:47.516Z,99225.20
2022-08-03T04:54:23.545Z,99228.60
2022-08-03T04:56:59.707Z,99233.00
2022-08-03T04:59:35.898Z,99233.20
2022-08-03T05:02:17.382Z,99237.60
2022-08-03T05:04:53.930Z,99239.20
2022-08-03T05:07:36.291Z,99238.60
2022-08-03T05:10:16.240Z,99234.00
2022-08-03T05:12:54.042Z,99235.40
2022-08-03T05:15:30.516Z,99241.60
2022-08-03T05:18:10.661Z,99243.40
2022-08-03T05:20:49.491Z,99244.60
2022-08-03T05:23:25.549Z,99242.00
2022-08-03T05:26:02.109Z,99243.00
2022-08-03T05:28:38.050Z,99240.60
2022-08-03T05:31:14.036Z,99247.00
2022-08-03T05:33:50.233Z,99248.20
2022-08-03T05:36:26.354Z,99251.80
2022-08-03T05:39:02.988Z,99248.20
2022-08-03T05:41:39.189Z,99248.80
2022-08-03T05:44:15.589Z,99248.00
2022-08-03T05:46:51.517Z,99254.20
2022-08-03T05:49:27.565Z,99250.60
2022-08-03T05:52:13.789Z,99256.40
2022-08-03T05:54:56.677Z,99259.40
2022-08-03T05:57:33.389Z,99256.20
2022-08-03T06:00:13.864Z,99254.80
2022-08-03T06:02:51.581Z,99258.40
2022-08-03T06:05:28.772Z,99260.20
2022-08-03T06:08:05.206Z,99260.60
2022-08-03T06:10:41.253Z,99262.20
2022-08-03T06:13:17.203Z,99265.00
2022-08-03T06:15:53.402Z,99260.20
2022-08-03T06:18:29.317Z,99265.20
2022-08-03T06:21:15.646Z,99265.80
2022-08-03T06:23:54.122Z,99265.20
2022-08-03T06:26:33.910Z,99273.20
2022-08-03T06:29:10.035Z,99266.20
2022-08-03T06:31:46.065Z,99269.80
2022-08-03T06:34:32.100Z,99267.20
2022-08-03T06:37:12.224Z,99270.60
2022-08-03T06:39:48.375Z,99272.20
2022-08-03T06:42:24.651Z,99273.40
2022-08-03T06:45:01.512Z,99281.60
2022-08-03T06:47:38.378Z,99282.80
2022-08-03T06:50:26.268Z,99278.60
2022-08-03T06:53:03.410Z,99284.00
2022-08-03T06:55:40.782Z,99285.60
2022-08-03T06:58:18.620Z,99288.00
2022-08-03T07:00:54.949Z,99285.60
2022-08-03T07:03:31.730Z,99285.40
2022-08-03T07:06:09.324Z,99286.40
2022-08-03T07:08:45.421Z,99290.60
2022-08-03T07:11:21.370Z,99290.20
2022-08-03T07:13:57.620Z,99289.20
2022-08-03T07:16:33.571Z,99294.20
2022-08-03T07:19:09.540Z,99291.20
2022-08-03T07:21:46.051Z,99290.80
2022-08-03T07:24:21.972Z,99291.60
2022-08-03T07:26:57.909Z,99296.00
2022-08-03T07:29:34.703Z,99293.60
2022-08-03T07:32:11.722Z,99299.20
2022-08-03T07:34:47.731Z,99296.40
2022-08-03T07:37:23.791Z,99299.00
2022-08-03T07:40:00.482Z,99303.40
2022-08-03T07:42:36.691Z,99299.20
2022-08-03T07:45:16.729Z,99302.40
2022-08-03T07:47:53.910Z,99295.60
2022-08-03T07:50:31.168Z,99293.20
2022-08-03T07:53:07.288Z,99292.60
2022-08-03T07:55:44.709Z,99293.60
2022-08-03T07:58:24.386Z,99298.00
2022-08-03T08:01:00.724Z,99296.60
2022-08-03T08:03:52.410Z,99293.20
2022-08-03T08:06:31.871Z,99293.60
2022-08-03T08:09:08.059Z,99295.00
2022-08-03T08:11:44.159Z,99294.60
2022-08-03T08:14:20.153Z,99298.60
2022-08-03T08:16:56.020Z,99291.80
2022-08-03T08:19:31.979Z,99294.40
2022-08-03T08:22:12.725Z,99297.40
2022-08-03T08:24:51.188Z,99297.00
2022-08-03T08:27:28.426Z,99302.60
2022-08-03T08:30:26.004Z,99306.60
2022-08-03T08:33:02.489Z,99310.20
2022-08-03T08:35:38.537Z,99302.40
2022-08-03T08:38:15.348Z,99303.00
2022-08-03T08:40:52.688Z,99303.40
2022-08-03T08:43:29.242Z,99303.80
2022-08-03T08:46:08.556Z,99305.00
2022-08-03T08:48:50.289Z,99310.60
2022-08-03T08:51:59.391Z,99310.40
2022-08-03T08:54:33.678Z,99306.80
2022-08-03T08:57:26.765Z,99305.40
2022-08-03T09:00:14.460Z,99306.00
2022-08-03T09:02:51.354Z,99299.20
2022-08-03T09:05:47.395Z,99301.60
2022-08-03T09:08:24.384Z,99302.00
2022-08-03T09:11:00.939Z,99303.80
2022-08-03T09:13:37.529Z,99302.40
2022-08-03T09:16:24.050Z,99298.00
2022-08-03T09:19:15.084Z,99296.80
2022-08-03T09:22:11.008Z,99293.40
2022-08-03T09:25:23.886Z,99294.20
2022-08-03T09:27:58.727Z,99292.80
2022-08-03T09:30:36.014Z,99293.80
2022-08-03T09:33:16.552Z,99296.60
2022-08-03T09:35:57.816Z,99291.00
2022-08-03T09:38:34.711Z,99294.00
2022-08-03T09:41:21.589Z,99289.40
2022-08-03T09:43:57.902Z,99290.40
2022-08-03T09:46:34.387Z,99290.00
2022-08-03T09:49:18.147Z,99288.00
2022-08-03T09:52:31.569Z,99288.40
2022-08-03T09:54:55.586Z,99284.60
2022-08-03T09:57:32.648Z,99287.00
2022-08-03T10:00:18.410Z,99283.20
2022-08-03T10:03:08.259Z,99282.20
2022-08-03T10:05:45.451Z,99277.60
2022-08-03T10:08:23.449Z,99276.40
2022-08-03T10:11:00.749Z,99277.40
2022-08-03T10:13:37.588Z,99279.00
2022-08-03T10:16:23.182Z,99280.80
2022-08-03T10:19:02.182Z,99279.00
2022-08-03T10:21:43.869Z,99274.40
2022-08-03T10:24:28.279Z,99274.80
2022-08-03T10:27:08.610Z,99277.80
2022-08-03T10:29:51.514Z,99277.00
2022-08-03T10:32:35.743Z,99275.80
2022-08-03T10:35:20.112Z,99275.20
2022-08-03T10:38:06.199Z,99277.80
2022-08-03T10:40:53.493Z,99274.80
2022-08-03T10:43:44.716Z,99269.80
2022-08-03T10:46:22.900Z,99268.00
2022-08-03T10:49:00.061Z,99269.60
2022-08-03T10:51:37.267Z,99271.20
2022-08-03T10:55:07.403Z,99266.80
2022-08-03T10:57:58.632Z,99264.40
2022-08-03T11:00:53.472Z,99260.00
2022-08-03T11:03:29.475Z,99258.40
2022-08-03T11:06:22.915Z,99252.20
2022-08-03T11:09:22.833Z,99253.00
2022-08-03T11:11:59.023Z,99250.80
2022-08-03T11:14:51.302Z,99253.00
2022-08-03T11:17:27.921Z,99252.60
2022-08-03T11:20:05.578Z,99247.20
2022-08-03T11:22:57.108Z,99244.40
2022-08-03T11:26:10.624Z,99244.00
2022-08-03T11:28:49.350Z,99244.20
2022-08-03T11:31:52.274Z,99240.40
2022-08-03T11:34:28.786Z,99241.60
2022-08-03T11:37:33.170Z,99238.40
2022-08-03T11:40:38.800Z,99237.80
2022-08-03T11:43:48.415Z,99234.40
2022-08-03T11:46:29.609Z,99234.80
2022-08-03T11:49:12.590Z,99228.80
2022-08-03T11:51:54.495Z,99225.40
2022-08-03T11:54:31.028Z,99220.80
2022-08-03T11:57:07.983Z,99226.00
2022-08-03T11:59:43.854Z,99221.20
2022-08-03T12:02:19.794Z,99219.40
2022-08-03T12:05:01.605Z,99219.20
2022-08-03T12:08:05.039Z,99215.60
2022-08-03T12:10:49.189Z,99217.40
2022-08-03T12:14:33.013Z,99214.20
2022-08-03T12:16:29.098Z,99210.00
2022-08-03T12:19:08.275Z,99206.80
2022-08-03T12:21:57.308Z,99207.00
2022-08-03T12:24:47.248Z,99200.60
2022-08-03T12:27:31.468Z,99204.60
2022-08-03T12:30:14.175Z,99200.60
2022-08-03T12:32:51.162Z,99196.20
2022-08-03T12:35:30.428Z,99191.00
2022-08-03T12:38:07.101Z,99192.20
2022-08-03T12:40:43.330Z,99187.20
2022-08-03T12:43:19.928Z,99184.00
2022-08-03T12:46:10.146Z,99185.60
2022-08-03T12:49:15.452Z,99180.80
2022-08-03T12:52:07.788Z,99181.40
2022-08-03T12:54:45.942Z,99175.80
2022-08-03T12:57:22.219Z,99180.80
2022-08-03T13:00:21.172Z,99179.60
2022-08-03T13:03:39.374Z,99172.80
2022-08-03T13:06:11.707Z,99176.60
2022-08-03T13:08:49.116Z,99173.20
2022-08-03T13:11:57.237Z,99174.20
2022-08-03T13:14:25.856Z,99172.00
2022-08-03T13:17:02.072Z,99164.00
2022-08-03T13:19:39.951Z,99168.20
2022-08-03T13:22:22.895Z,99160.60
2022-08-03T13:25:01.435Z,99165.40
2022-08-03T13:28:13.780Z,99166.80
2022-08-03T13:30:33.556Z,99167.20
2022-08-03T13:33:11.301Z,99169.00
2022-08-03T13:35:47.586Z,99165.60
2022-08-03T13:38:27.203Z,99163.80
2022-08-03T13:41:07.045Z,99164.60
2022-08-03T13:43:43.535Z,99158.00
2022-08-03T13:46:20.505Z,99157.60
2022-08-03T13:48:56.599Z,99158.00
2022-08-03T13:51:33.187Z,99155.60
2022-08-03T13:54:09.765Z,99158.80
2022-08-03T13:56:52.846Z,99159.40
2022-08-03T13:59:29.233Z,99157.00
2022-08-03T14:02:05.857Z,99154.40
2022-08-03T14:04:41.814Z,99156.00
2022-08-03T14:07:17.896Z,99156.00
2022-08-03T14:09:54.186Z,99152.00
2022-08-03T14:12:30.222Z,99154.80
2022-08-03T14:15:10.179Z,99151.60
2022-08-03T14:17:50.014Z,99160.00
2022-08-03T14:20:38.683Z,99149.80
2022-08-03T14:23:23.320Z,99150.40
2022-08-03T14:26:00.914Z,99151.00
2022-08-03T14:28:37.140Z,99146.00
2022-08-03T14:32:09.055Z,99146.20
2022-08-03T14:34:09.321Z,99147.80
2022-08-03T14:36:47.274Z,99144.60
2022-08-03T14:39:23.586Z,99141.20
2022-08-03T14:41:59.672Z,99143.20
2022-08-03T14:44:35.536Z,99136.80
2022-08-03T14:47:11.776Z,99136.80
2022-08-03T14:50:37.473Z,99135.80
2022-08-03T14:52:44.072Z,99137.40
2022-08-03T14:55:19.907Z,99134.60
2022-08-03T14:57:56.921Z,99131.80
2022-08-03T15:00:32.861Z,99129.40
2022-08-03T15:03:09.217Z,99131.80
2022-08-03T15:05:45.235Z,99132.40
2022-08-03T15:08:21.484Z,99130.40
2022-08-03T15:10:57.756Z,99129.80
2022-08-03T15:13:33.721Z,99131.20
2022-08-03T15:16:10.875Z,99132.00
2022-08-03T15:18:47.359Z,99132.80
2022-08-03T15:21:46.324Z,99127.00
2022-08-03T15:24:19.266Z,99125.00
2022-08-03T15:26:55.660Z,99116.80
2022-08-03T15:30:06.716Z,99121.00
2022-08-03T15:32:27.938Z,99119.40
2022-08-03T15:35:04.466Z,99118.20
2022-08-03T15:37:40.553Z,99114.80
2022-08-03T15:40:17.906Z,99113.80
2022-08-03T15:42:53.835Z,99117.20
2022-08-03T15:45:35.242Z,99115.00
2022-08-03T15:48:12.592Z,99116.80
2022-08-03T15:50:48.619Z,99115.60
2022-08-03T15:53:24.540Z,99109.60
2022-08-03T15:56:01.073Z,99110.40
2022-08-03T15:59:04.359Z,99108.00
2022-08-03T16:01:34.753Z,99105.40
2022-08-03T16:04:10.791Z,99103.80
2022-08-03T16:06:46.670Z,99104.40
2022-08-03T16:09:24.174Z,99100.80
2022-08-03T16:12:18.524Z,99103.40
2022-08-03T16:14:54.468Z,99099.80
2022-08-03T16:17:31.006Z,99095.00
2022-08-03T16:20:28.916Z,99093.60
2022-08-03T16:23:11.205Z,99091.20
2022-08-03T16:25:49.061Z,99089.80
2022-08-03T16:28:25.114Z,99087.00
2022-08-03T16:31:01.659Z,99089.20
2022-08-03T16:33:37.861Z,99086.20
2022-08-03T16:36:14.175Z,99085.60
2022-08-03T16:38:50.194Z,99082.00
2022-08-03T16:41:26.305Z,99079.80
2022-08-03T16:44:22.617Z,99081.80
2022-08-03T16:46:59.763Z,99079.20
2022-08-03T16:49:54.747Z,99079.60
2022-08-03T16:52:33.024Z,99082.60
2022-08-03T16:55:15.381Z,99080.40
2022-08-03T16:57:58.424Z,99083.60
2022-08-03T17:00:41.564Z,99084.00
2022-08-03T17:03:24.136Z,99090.80
2022-08-03T17:06:01.755Z,99091.80
2022-08-03T17:08:38.700Z,99093.00
2022-08-03T17:11:16.588Z,99095.80
2022-08-03T17:13:52.838Z,99096.00
2022-08-03T17:16:28.917Z,99100.40
2022-08-03T17:19:10.203Z,99099.20
2022-08-03T17:21:53.036Z,99106.20
2022-08-03T17:24:41.452Z,99103.00
2022-08-03T17:28:48.843Z,99107.00
2022-08-03T17:30:43.562Z,99108.60
2022-08-03T17:33:20.867Z,99110.00
2022-08-03T17:35:59.181Z,99113.40
2022-08-03T17:38:35.782Z,99109.00
2022-08-03T17:41:12.408Z,99114.80
2022-08-03T17:44:14.955Z,99115.60
2022-08-03T17:46:48.043Z,99115.60
2022-08-03T17:49:26.343Z,99114.60
2022-08-03T17:52:10.038Z,99118.80
2022-08-03T17:55:58.552Z,99123.60
2022-08-03T17:58:15.005Z,99127.00
2022-08-03T18:01:58.490Z,99121.20
2022-08-03T18:04:12.694Z,99123.80
2022-08-03T18:06:56.088Z,99130.60
2022-08-03T18:10:03.653Z,99130.60
2022-08-03T18:12:42.977Z,99132.20
2022-08-03T18:15:35.519Z,99133.20
2022-08-03T18:18:12.353Z,99133.20
2022-08-03T18:20:49.664Z,99137.00
2022-08-03T18:23:36.677Z,99138.60
2022-08-03T18:26:14.233Z,99142.00
2022-08-03T18:28:54.913Z,99145.40
2022-08-03T18:32:03.265Z,99149.40
2022-08-03T18:34:33.456Z,99157.20
2022-08-03T18:37:12.336Z,99161.80
2022-08-03T18:39:57.861Z,99162.80
2022-08-03T18:42:35.296Z,99163.80
2022-08-03T18:45:14.693Z,99166.20
2022-08-03T18:48:12.235Z,99168.60
2022-08-03T18:51:02.970Z,99170.20
2022-08-03T18:54:03.470Z,99175.20
2022-08-03T18:56:52.788Z,99173.40
2022-08-03T18:59:45.586Z,99181.20
2022-08-03T19:02:42.142Z,99179.20
2022-08-03T19:05:49.383Z,99179.40
2022-08-03T19:08:38.236Z,99181.60
2022-08-03T19:11:27.920Z,99184.20
2022-08-03T19:14:11.448Z,99182.20
2022-08-03T19:16:50.859Z,99180.40
2022-08-03T19:19:28.530Z,99180.60
2022-08-03T19:22:23.142Z,99181.40
2022-08-03T19:25:02.829Z,99183.80
2022-08-03T19:27:45.152Z,99185.00
2022-08-03T19:30:39.028Z,99185.80
2022-08-03T19:33:18.523Z,99186.80
2022-08-03T19:35:57.137Z,99189.00
2022-08-03T19:38:33.693Z,99184.80
2022-08-03T19:41:14.864Z,99190.60
2022-08-03T19:43:58.197Z,99192.00
2022-08-03T19:46:41.612Z,99193.00
2022-08-03T19:49:20.689Z,99198.00
2022-08-03T19:52:00.941Z,99195.00
2022-08-03T19:54:53.970Z,99195.60
2022-08-03T19:57:33.823Z,99193.20
2022-08-03T20:00:14.774Z,99196.60
2022-08-03T20:02:52.484Z,99192.60
2022-08-03T20:05:29.726Z,99194.00
2022-08-03T20:08:23.122Z,99190.40
2022-08-03T20:11:00.507Z,99188.80
2022-08-03T20:13:39.131Z,99191.40
2022-08-03T20:16:15.936Z,99195.40
2022-08-03T20:18:52.123Z,99191.00
2022-08-03T20:21:32.741Z,99192.20
2022-08-03T20:24:23.301Z,99186.40
2022-08-03T20:27:05.188Z,99181.60
2022-08-03T20:30:06.477Z,99179.20
2022-08-03T20:32:45.291Z,99172.60
2022-08-03T20:35:21.377Z,99172.60
2022-08-03T20:37:57.684Z,99171.80
2022-08-03T20:40:35.802Z,99170.60
2022-08-03T20:43:14.371Z,99174.00
2022-08-03T20:46:00.052Z,99176.40
2022-08-03T20:48:48.574Z,99171.60
2022-08-03T20:51:50.448Z,99170.00
2022-08-03T20:54:31.077Z,99172.20
2022-08-03T20:57:11.549Z,99179.80
2022-08-03T20:59:51.738Z,99179.40
2022-08-03T21:02:30.053Z,99178.20
2022-08-03T21:05:10.032Z,99176.60
2022-08-03T21:08:05.625Z,99179.60
2022-08-03T21:10:46.565Z,99176.80
2022-08-03T21:13:45.518Z,99180.60
2022-08-03T21:16:28.364Z,99181.20
2022-08-03T21:19:09.859Z,99185.00
2022-08-03T21:21:51.139Z,99180.40
2022-08-03T21:24:31.938Z,99176.60
2022-08-03T21:27:11.596Z,99181.20
2022-08-03T21:29:52.981Z,99188.40
2022-08-03T21:32:33.598Z,99195.40
2022-08-03T21:35:14.164Z,99191.20
2022-08-03T21:38:09.114Z,99193.00
2022-08-03T21:40:45.841Z,99188.20
2022-08-03T21:43:27.359Z,99193.40
2022-08-03T21:46:08.970Z,99192.40
2022-08-03T21:48:52.099Z,99195.60
2022-08-03T21:51:33.126Z,99200.60
2022-08-03T21:54:10.737Z,99197.40
2022-08-03T21:56:54.263Z,99201.20
2022-08-03T21:59:33.987Z,99201.40
2022-08-03T22:02:11.486Z,99200.00
2022-08-03T22:05:00.727Z,99195.40
2022-08-03T22:07:42.598Z,99198.00
2022-08-03T22:10:18.987Z,99195.20
2022-08-03T22:12:55.128Z,99193.00
2022-08-03T22:15:31.772Z,99193.00
2022-08-03T22:18:08.475Z,99194.00
2022-08-03T22:20:45.174Z,99191.00
2022-08-03T22:23:26.788Z,99194.80
2022-08-03T22:26:07.724Z,99189.20
2022-08-03T22:28:44.724Z,99189.20
2022-08-03T22:31:30.986Z,99189.40
2022-08-03T22:34:18.018Z,99192.80
2022-08-03T22:37:08.021Z,99194.00
2022-08-03T22:39:48.065Z,99192.40
2022-08-03T22:42:26.860Z,99192.80
2022-08-03T22:45:05.493Z,99193.40
2022-08-03T22:47:43.829Z,99190.40
2022-08-03T22:50:33.460Z,99188.80
2022-08-03T22:53:11.237Z,99187.40
2022-08-03T22:55:48.544Z,99186.00
2022-08-03T22:58:25.386Z,99187.20
2022-08-03T23:01:07.800Z,99188.60
2022-08-03T23:04:00.254Z,99183.40
2022-08-03T23:06:42.549Z,99187.60
2022-08-03T23:09:24.442Z,99183.40
2022-08-03T23:12:04.221Z,99183.20
2022-08-03T23:14:45.168Z,99182.20
2022-08-03T23:17:23.607Z,99186.00
2022-08-03T23:20:04.782Z,99178.00
2022-08-03T23:22:45.274Z,99175.60
2022-08-03T23:25:24.841Z,99176.60
2022-08-03T23:28:06.143Z,99173.00
2022-08-03T23:30:43.245Z,99175.20
2022-08-03T23:33:22.024Z,99177.60
2022-08-03T23:36:29.296Z,99174.00
2022-08-03T23:39:03.276Z,99171.40
2022-08-03T23:41:42.171Z,99171.60
2022-08-03T23:44:20.085Z,99169.40
2022-08-03T23:46:56.447Z,99170.80
2022-08-03T23:49:32.551Z,99167.40
2022-08-03T23:52:21.885Z,99170.20
2022-08-03T23:55:17.890Z,99166.60
2022-08-03T23:58:18.132Z,99166.60
